Time;durP1;ratioP1;P1;durP2;ratioP2;P2;SDS_P1;SDS_P2;PMS_P1;PMS_P2;Temp;Humidity;BMP_temperature;BMP_pressure;BME280_temperature;BME280_humidity;BME280_pressure;Samples;Min_cycle;Max_cycle;Signal;HPM_P1;HPM_P2
2021/06/24 00:00:52;;;;;;;;;;;29.10;85.70;;;;;;5084090;28;20093;-57
2021/06/24 00:03:19;;;;;;;;;;;29.10;86.00;;;;;;5083796;28;19915;-56
2021/06/24 00:05:46;;;;;;;;;;;29.10;86.10;;;;;;5083962;28;19907;-56
2021/06/24 00:08:12;;;;;;;;;;;29.10;86.30;;;;;;5083834;28;19927;-57
2021/06/24 00:10:42;;;;;;;;;;;29.00;86.40;;;;;;5083750;28;20195;-57
2021/06/24 00:13:08;;;;;;;;;;;29.00;86.50;;;;;;5083829;28;20180;-58
2021/06/24 00:15:35;;;;;;;;;;;29.00;86.50;;;;;;5086694;28;19947;-57
2021/06/24 00:18:02;;;;;;;;;;;29.00;86.70;;;;;;5087568;28;19932;-55
2021/06/24 00:20:28;;;;;;;;;;;28.90;86.60;;;;;;5088123;28;19946;-56
2021/06/24 00:22:54;;;;;;;;;;;28.90;87.00;;;;;;5087708;28;19900;-57
2021/06/24 00:25:21;;;;;;;;;;;28.90;86.80;;;;;;5087890;28;19934;-60
2021/06/24 00:27:47;;;;;;;;;;;28.90;86.70;;;;;;5087333;28;19919;-56
2021/06/24 00:30:13;;;;;;;;;;;28.90;86.70;;;;;;5087813;28;20089;-56
2021/06/24 00:32:40;;;;;;;;;;;28.80;86.80;;;;;;5087500;28;19931;-56
2021/06/24 00:35:07;;;;;;;;;;;28.80;86.70;;;;;;5087753;28;19915;-57
2021/06/24 00:37:34;;;;;;;;;;;28.80;86.70;;;;;;5087331;28;19900;-60
2021/06/24 00:40:02;;;;;;;;;;;28.80;86.60;;;;;;5087455;28;20251;-56
2021/06/24 00:42:29;;;;;;;;;;;28.80;86.50;;;;;;5087278;28;19900;-57
2021/06/24 00:44:56;;;;;;;;;;;28.70;86.50;;;;;;5087646;28;19908;-53
2021/06/24 00:47:22;;;;;;;;;;;28.70;86.60;;;;;;5087242;28;19900;-55
2021/06/24 00:49:48;;;;;;;;;;;28.70;86.40;;;;;;5087451;28;19912;-58
2021/06/24 00:52:15;;;;;;;;;;;28.70;86.40;;;;;;5087112;28;19968;-60
2021/06/24 00:54:41;;;;;;;;;;;28.70;86.40;;;;;;5087200;28;19940;-56
2021/06/24 00:57:08;;;;;;;;;;;28.70;86.50;;;;;;5085780;28;19908;-60
2021/06/24 00:59:37;;;;;;;;;;;28.70;86.50;;;;;;5085939;28;19908;-58
2021/06/24 01:02:07;;;;;;;;;;;28.60;86.40;;;;;;5086700;28;19905;-58
2021/06/24 01:04:33;;;;;;;;;;;28.60;86.40;;;;;;5087209;28;19908;-56
2021/06/24 01:07:01;;;;;;;;;;;28.60;86.40;;;;;;5102446;28;19940;-57
2021/06/24 01:09:27;;;;;;;;;;;28.60;86.60;;;;;;5086768;28;19913;-56
2021/06/24 01:11:54;;;;;;;;;;;28.60;87.10;;;;;;5086679;28;19900;-61
2021/06/24 01:14:21;;;;;;;;;;;28.60;86.70;;;;;;5086775;28;19908;-58
2021/06/24 01:16:47;;;;;;;;;;;28.50;86.80;;;;;;5086517;28;20238;-56
2021/06/24 01:19:17;;;;;;;;;;;28.50;86.90;;;;;;5086702;28;19930;-57
2021/06/24 01:21:43;;;;;;;;;;;28.50;86.80;;;;;;5086426;28;19908;-57
2021/06/24 01:24:10;;;;;;;;;;;28.50;86.90;;;;;;5086601;28;19909;-58
2021/06/24 01:26:38;;;;;;;;;;;28.50;87.20;;;;;;5085728;28;19907;-60
2021/06/24 01:29:05;;;;;;;;;;;28.40;87.20;;;;;;5086386;28;19986;-59
2021/06/24 01:31:31;;;;;;;;;;;28.40;87.20;;;;;;5086190;28;19910;-57
2021/06/24 01:33:58;;;;;;;;;;;28.40;87.40;;;;;;5086381;28;19912;-56
2021/06/24 01:36:24;;;;;;;;;;;28.40;87.40;;;;;;5086252;28;19923;-60
2021/06/24 01:38:51;;;;;;;;;;;28.40;87.50;;;;;;5086148;28;19912;-55
2021/06/24 01:41:17;;;;;;;;;;;28.30;87.50;;;;;;5086027;28;19904;-55
2021/06/24 01:43:43;;;;;;;;;;;28.30;88.00;;;;;;5086315;28;19958;-57
2021/06/24 01:46:09;;;;;;;;;;;28.30;88.30;;;;;;5101609;28;19900;-58
2021/06/24 01:48:36;;;;;;;;;;;28.20;88.40;;;;;;5085979;28;20143;-57
2021/06/24 01:51:03;;;;;;;;;;;28.20;88.70;;;;;;5085910;28;20183;-56
2021/06/24 01:53:29;;;;;;;;;;;28.20;88.90;;;;;;5085950;28;19907;-58
2021/06/24 01:55:56;;;;;;;;;;;28.20;89.10;;;;;;5085742;28;19900;-56
2021/06/24 01:58:23;;;;;;;;;;;28.20;89.20;;;;;;5085764;28;19983;-57
2021/06/24 02:00:53;;;;;;;;;;;28.20;89.40;;;;;;5085829;28;19901;-56
2021/06/24 02:03:19;;;;;;;;;;;28.20;89.70;;;;;;5085655;28;19908;-57
2021/06/24 02:05:48;;;;;;;;;;;28.10;89.80;;;;;;5085671;28;19932;-59
2021/06/24 02:08:15;;;;;;;;;;;28.10;89.90;;;;;;5085466;28;19922;-58
2021/06/24 02:10:42;;;;;;;;;;;28.10;89.90;;;;;;5085825;28;20228;-57
2021/06/24 02:13:08;;;;;;;;;;;28.10;90.00;;;;;;5085566;28;19901;-57
2021/06/24 02:15:34;;;;;;;;;;;28.10;90.20;;;;;;5085924;28;19912;-56
2021/06/24 02:18:00;;;;;;;;;;;28.10;90.20;;;;;;5085370;28;19963;-60
2021/06/24 02:20:27;;;;;;;;;;;28.10;90.30;;;;;;5085615;28;20189;-55
2021/06/24 02:22:54;;;;;;;;;;;28.00;90.30;;;;;;5085255;28;19900;-55
2021/06/24 02:25:20;;;;;;;;;;;28.00;90.10;;;;;;5101065;28;19953;-54
2021/06/24 02:27:47;;;;;;;;;;;28.10;90.10;;;;;;5085091;28;19951;-52
2021/06/24 02:30:14;;;;;;;;;;;28.10;90.20;;;;;;5085646;28;20089;-56
2021/06/24 02:32:40;;;;;;;;;;;28.10;90.40;;;;;;5085053;28;19901;-59
2021/06/24 02:35:11;;;;;;;;;;;28.10;90.20;;;;;;5085481;28;19919;-55
2021/06/24 02:37:38;;;;;;;;;;;28.10;90.10;;;;;;5084224;28;19934;-51
2021/06/24 02:40:04;;;;;;;;;;;28.10;90.10;;;;;;5085222;28;20084;-50
2021/06/24 02:42:31;;;;;;;;;;;28.10;90.20;;;;;;5084593;28;19912;-50
2021/06/24 02:45:02;;;;;;;;;;;28.00;90.20;;;;;;5084613;28;19914;-53
2021/06/24 02:47:29;;;;;;;;;;;28.10;90.30;;;;;;5083741;28;20216;-45
2021/06/24 02:49:55;;;;;;;;;;;28.10;90.20;;;;;;5101002;28;20207;-52
2021/06/24 02:52:21;;;;;;;;;;;28.10;90.30;;;;;;5084859;28;19908;-54
2021/06/24 02:54:49;;;;;;;;;;;28.00;90.30;;;;;;5100522;28;20260;-57
2021/06/24 02:57:16;;;;;;;;;;;28.00;90.40;;;;;;5084763;28;19933;-57
2021/06/24 02:59:42;;;;;;;;;;;28.00;90.30;;;;;;5083181;28;20101;-51
2021/06/24 03:02:11;;;;;;;;;;;28.00;90.30;;;;;;5084373;28;20193;-56
2021/06/24 03:04:38;;;;;;;;;;;28.00;90.20;;;;;;5084902;28;19928;-51
2021/06/24 03:07:04;;;;;;;;;;;28.00;90.30;;;;;;5084645;28;19904;-56
2021/06/24 03:09:30;;;;;;;;;;;28.10;90.20;;;;;;5083470;28;19916;-55
2021/06/24 03:11:57;;;;;;;;;;;28.00;90.10;;;;;;5084614;28;19904;-51
2021/06/24 03:14:23;;;;;;;;;;;28.00;90.10;;;;;;5084295;28;20212;-51
2021/06/24 03:16:49;;;;;;;;;;;28.00;90.20;;;;;;5100062;28;19977;-54
2021/06/24 03:19:16;;;;;;;;;;;28.00;90.20;;;;;;5083906;28;19909;-56
2021/06/24 03:21:43;;;;;;;23.17;5.72;;;28.00;90.30;;;;;;5083498;28;20074;-58
2021/06/24 03:24:10;;;;;;;26.10;5.93;;;28.00;90.20;;;;;;5083708;28;20024;-58
2021/06/24 03:26:37;;;;;;;20.00;5.97;;;28.00;90.20;;;;;;5083782;28;20027;-60
2021/06/24 03:29:06;;;;;;;16.63;5.50;;;28.00;90.20;;;;;;5083910;28;20266;-59
2021/06/24 03:31:34;;;;;;;25.27;6.22;;;28.00;90.30;;;;;;5083717;28;20058;-60
2021/06/24 03:34:01;;;;;;;22.10;5.93;;;28.00;90.30;;;;;;5083902;28;20024;-57
2021/06/24 03:36:28;;;;;;;19.33;5.57;;;28.00;90.40;;;;;;5083813;28;20020;-58
2021/06/24 03:38:55;;;;;;;17.35;5.40;;;27.90;90.40;;;;;;5083431;28;20024;-55
2021/06/24 03:41:26;;;;;;;21.15;5.38;;;27.90;90.50;;;;;;5083771;28;20052;-57
2021/06/24 03:43:54;;;;;;;18.10;5.20;;;27.90;90.50;;;;;;5083932;28;20040;-58
2021/06/24 03:46:24;;;;;;;17.00;5.82;;;27.90;90.70;;;;;;5083528;28;20021;-56
2021/06/24 03:48:52;;;;;;;14.90;5.07;;;28.00;90.50;;;;;;5084978;28;20054;-59
2021/06/24 03:51:20;;;;;;;19.48;5.43;;;28.00;90.50;;;;;;5087474;28;20084;-57
2021/06/24 03:53:47;;;;;;;23.27;5.70;;;28.00;90.50;;;;;;5087049;28;20016;-56
2021/06/24 03:56:13;;;;;;;19.38;4.95;;;27.90;90.50;;;;;;5087380;28;20313;-59
2021/06/24 03:58:40;;;;;;;21.40;5.57;;;28.00;90.50;;;;;;5087341;28;20091;-56
2021/06/24 04:01:07;;;;;;;25.33;5.68;;;28.00;90.50;;;;;;5087472;28;20021;-57
2021/06/24 04:03:34;;;;;;;30.42;6.03;;;28.00;90.60;;;;;;5087544;28;20032;-55
2021/06/24 04:06:31;;;;;;;33.20;6.13;;;28.00;90.50;;;;;;5087530;28;20055;-59
2021/06/24 04:08:58;;;;;;;37.30;7.32;;;27.90;90.50;;;;;;5087712;28;20029;-57
2021/06/24 04:11:24;;;;;;;36.22;6.75;;;27.90;90.60;;;;;;5087527;28;20308;-59
2021/06/24 04:13:51;;;;;;;32.60;6.28;;;27.90;90.70;;;;;;5087479;28;20040;-56
2021/06/24 04:16:17;;;;;;;33.83;6.45;;;27.90;90.80;;;;;;5087245;28;20020;-57
2021/06/24 04:18:44;;;;;;;45.03;5.97;;;27.90;90.60;;;;;;5086816;28;20029;-55
2021/06/24 04:21:10;;;;;;;29.05;5.70;;;27.90;90.60;;;;;;5086712;28;20312;-57
2021/06/24 04:23:37;;;;;;;48.10;6.85;;;27.90;90.50;;;;;;5086904;28;20125;-57
2021/06/24 04:26:04;;;;;;;29.27;6.38;;;27.90;90.60;;;;;;5086643;28;20092;-56
2021/06/24 04:28:33;;;;;;;44.45;6.60;;;27.90;90.60;;;;;;5086605;28;20082;-55
2021/06/24 04:31:00;;;;;;;35.60;6.13;;;27.80;90.70;;;;;;5086569;28;20020;-55
2021/06/24 04:33:27;;;;;;;26.67;5.43;;;27.90;90.80;;;;;;5086555;28;20016;-54
2021/06/24 04:35:53;;;;;;;41.20;5.80;;;27.80;90.80;;;;;;5086740;28;20050;-53
2021/06/24 04:38:20;;;;;;;29.20;6.90;;;27.80;90.80;;;;;;5086859;28;20024;-56
2021/06/24 04:40:47;;;;;;;26.27;5.90;;;27.70;91.00;;;;;;5086949;28;20048;-58
2021/06/24 04:43:13;;;;;;;22.20;5.15;;;27.70;91.10;;;;;;5086546;28;20020;-59
2021/06/24 04:45:40;;;;;;;14.15;4.63;;;27.70;91.10;;;;;;5086831;28;20038;-59
2021/06/24 04:48:08;;;;;;;17.20;4.55;;;27.60;91.20;;;;;;5086925;28;20012;-58
2021/06/24 04:50:38;;;;;;;21.38;4.57;;;27.70;91.30;;;;;;5087095;28;20205;-55
2021/06/24 04:53:05;;;;;;;20.20;4.60;;;27.60;91.30;;;;;;5086602;28;20024;-59
2021/06/24 04:55:41;;;;;;;18.73;4.45;;;27.60;91.30;;;;;;5087033;28;20051;-56
2021/06/24 04:58:09;;;;;;;22.35;4.78;;;27.50;91.30;;;;;;5086532;28;20024;-60
2021/06/24 05:00:37;;;;;;;21.50;4.82;;;27.50;91.40;;;;;;5085667;28;20024;-56
2021/06/24 05:03:04;;;;;;;13.57;4.38;;;27.50;91.40;;;;;;5086324;28;20031;-57
2021/06/24 05:05:32;;;;;;;13.88;4.75;;;27.50;91.50;;;;;;5087078;28;20039;-56
2021/06/24 05:08:10;;;;;;;19.83;4.55;;;27.50;91.50;;;;;;5086457;28;20247;-54
2021/06/24 05:10:37;;;;;;;14.07;4.90;;;27.50;91.50;;;;;;5086118;28;20020;-56
2021/06/24 05:13:04;;;;;;;15.75;4.75;;;27.40;91.50;;;;;;5086371;28;20024;-57
2021/06/24 05:15:32;;;;;;;13.95;4.53;;;27.40;91.50;;;;;;5086205;28;20086;-61
2021/06/24 05:18:00;;;;;;;20.15;4.88;;;27.40;91.50;;;;;;5086104;28;20091;-58
2021/06/24 05:20:26;;;;;;;18.80;4.97;;;27.40;91.60;;;;;;5086700;28;20030;-58
2021/06/24 05:22:53;;;;;;;16.73;4.72;;;27.40;91.80;;;;;;5086121;28;20275;-63
2021/06/24 05:25:20;;;;;;;21.00;5.45;;;27.40;91.70;;;;;;5086399;28;20032;-55
2021/06/24 05:27:47;;;;;;;16.17;5.20;;;27.40;91.80;;;;;;5085877;28;20052;-59
2021/06/24 05:30:14;;;;;;;18.20;4.32;;;27.40;91.80;;;;;;5086352;28;20040;-58
2021/06/24 05:32:41;;;;;;;17.55;4.88;;;27.40;91.80;;;;;;5085853;28;20335;-56
2021/06/24 05:35:09;;;;;;;16.98;4.50;;;27.40;91.80;;;;;;5086215;28;20035;-61
2021/06/24 05:37:36;;;;;;;18.08;4.38;;;27.40;91.80;;;;;;5085790;28;20182;-57
2021/06/24 05:40:04;;;;;;;14.48;4.57;;;27.40;91.80;;;;;;5086005;28;20033;-56
2021/06/24 05:42:30;;;;;;;21.90;4.20;;;27.40;91.80;;;;;;5085723;28;20020;-56
2021/06/24 05:44:57;;;;;;;16.73;4.55;;;27.40;91.80;;;;;;5086027;28;20021;-56
2021/06/24 05:47:24;;;;;;;16.35;4.45;;;27.40;91.90;;;;;;5085551;28;20093;-56
2021/06/24 05:49:50;;;;;;;18.63;3.65;;;27.40;91.90;;;;;;5085880;28;20029;-55
2021/06/24 05:52:17;;;;;;;14.38;4.43;;;27.40;91.90;;;;;;5085720;28;20020;-57
2021/06/24 05:54:44;;;;;;;13.00;3.90;;;27.40;92.00;;;;;;5085749;28;20200;-56
2021/06/24 05:57:10;;;;;;;13.43;3.65;;;27.30;92.10;;;;;;5085536;28;20016;-59
2021/06/24 05:59:37;;;;;;;24.05;3.97;;;27.40;92.20;;;;;;5085755;28;20071;-57
2021/06/24 06:02:04;;;;;;;26.08;3.88;;;27.30;92.20;;;;;;5085371;28;20028;-59
2021/06/24 06:04:31;;;;;;;33.13;5.00;;;27.30;92.10;;;;;;5085811;28;20260;-57
2021/06/24 06:06:57;;;;;;;26.70;4.75;;;27.30;92.10;;;;;;5085300;28;20016;-54
2021/06/24 06:09:24;;;;;;;19.17;4.13;;;27.30;92.20;;;;;;5085239;28;20251;-57
2021/06/24 06:11:51;;;;;;;22.05;3.95;;;27.30;92.20;;;;;;5085134;28;20019;-56
2021/06/24 06:14:17;;;;;;;;;;;27.30;92.30;;;;;;5085492;28;20024;-57
2021/06/24 06:16:46;;;;;;;;;;;27.30;92.30;;;;;;5085465;28;19935;-57
2021/06/24 06:19:13;;;;;;;;;;;27.30;92.30;;;;;;5085667;28;19908;-56
2021/06/24 06:21:39;;;;;;;;;;;27.30;92.40;;;;;;5085391;28;19928;-56
2021/06/24 06:24:06;;;;;;;;;;;27.30;92.40;;;;;;5085450;28;19971;-55
2021/06/24 06:26:32;;;;;;;;;;;27.30;92.40;;;;;;5084182;28;19908;-57
2021/06/24 06:29:03;;;;;;;;;;;27.30;92.30;;;;;;5085203;28;19935;-60
2021/06/24 06:31:29;;;;;;;;;;;27.20;92.30;;;;;;5085428;28;19950;-55
2021/06/24 06:33:56;;;;;;;;;;;27.20;92.40;;;;;;5085382;28;19904;-56
2021/06/24 06:36:22;;;;;;;;;;;27.20;92.50;;;;;;5085069;28;19974;-56
2021/06/24 06:38:48;;;;;;;;;;;27.20;92.50;;;;;;5084950;28;19904;-57
2021/06/24 06:41:14;;;;;;;;;;;27.20;92.50;;;;;;5084945;28;20185;-56
2021/06/24 06:43:41;;;;;;;;;;;27.20;92.50;;;;;;5085021;28;19939;-55
2021/06/24 06:46:07;;;;;;;;;;;27.20;92.50;;;;;;5084910;28;19905;-55
2021/06/24 06:48:34;;;;;;;;;;;27.20;92.50;;;;;;5084762;28;19911;-54
2021/06/24 06:51:01;;;;;;;;;;;27.20;92.50;;;;;;5084786;28;19904;-56
2021/06/24 06:53:27;;;;;;;;;;;27.20;92.50;;;;;;5084590;28;19900;-56
2021/06/24 06:55:53;;;;;;;;;;;27.20;92.50;;;;;;5084616;28;19911;-55
2021/06/24 06:58:20;;;;;;;;;;;27.10;92.50;;;;;;5083776;28;19946;-61
2021/06/24 07:00:46;;;;;;;;;;;27.20;92.50;;;;;;5083898;28;19911;-56
2021/06/24 07:03:14;;;;;;;;;;;27.20;92.70;;;;;;5083696;28;20177;-56
2021/06/24 07:05:40;;;;;;;;;;;27.20;92.50;;;;;;5084002;28;19905;-55
2021/06/24 07:08:07;;;;;;;;;;;27.20;92.60;;;;;;5083846;28;20074;-58
2021/06/24 07:10:33;;;;;;;;;;;27.10;92.60;;;;;;5084069;28;19916;-54
2021/06/24 07:12:59;;;;;;;;;;;27.20;92.60;;;;;;5083760;28;24055;-55
2021/06/24 07:15:26;;;;;;;;;;;27.10;92.60;;;;;;5084150;28;24079;-55
2021/06/24 07:17:52;;;;;;;;;;;27.10;92.70;;;;;;5083425;28;19911;-57
2021/06/24 07:20:18;;;;;;;;;;;27.10;92.60;;;;;;5083970;28;24078;-55
2021/06/24 07:22:45;;;;;;;;;;;27.10;92.70;;;;;;5083543;28;19904;-57
2021/06/24 07:25:13;;;;;;;;;;;27.10;92.60;;;;;;5083464;28;19912;-59
2021/06/24 07:27:40;;;;;;;;;;;27.10;92.80;;;;;;5083859;28;24155;-56
2021/06/24 07:30:07;;;;;;;;;;;27.10;92.90;;;;;;5083860;28;19919;-61
2021/06/24 07:32:33;;;;;;;;;;;27.10;93.10;;;;;;5083554;28;19959;-56
2021/06/24 07:34:59;;;;;;;;;;;27.10;93.10;;;;;;5084157;28;19908;-60
2021/06/24 07:37:25;;;;;;;;;;;27.10;93.30;;;;;;5083525;28;24108;-57
2021/06/24 07:39:52;;;;;;;;;;;27.00;93.40;;;;;;5083748;28;24083;-55
2021/06/24 07:42:19;;;;;;;;;;;27.00;93.40;;;;;;5083655;28;20181;-56
2021/06/24 07:44:46;;;;;;;;;;;27.00;93.40;;;;;;5083218;28;19908;-55
2021/06/24 07:47:13;;;;;;;;;;;27.00;93.50;;;;;;5082961;28;24117;-54
2021/06/24 07:49:39;;;;;;;;;;;27.00;93.50;;;;;;5084104;28;20173;-59
2021/06/24 07:52:06;;;;;;;;;;;27.00;93.50;;;;;;5083604;28;24109;-57
2021/06/24 07:54:32;;;;;;;;;;;27.00;93.50;;;;;;5083756;28;24080;-59
2021/06/24 07:56:58;;;;;;;;;;;27.00;93.60;;;;;;5083649;28;24058;-55
2021/06/24 07:59:24;;;;;;;;;;;27.00;93.50;;;;;;5083118;28;24069;-56
2021/06/24 08:01:51;;;;;;;;;;;27.00;93.70;;;;;;5083243;28;19964;-55
2021/06/24 08:04:17;;;;;;;;;;;26.90;93.60;;;;;;5082954;28;24073;-55
2021/06/24 08:06:43;;;;;;;;;;;27.00;93.60;;;;;;5082930;28;24060;-57
2021/06/24 08:09:10;;;;;;;;;;;27.00;93.60;;;;;;5082918;28;25089;-55
2021/06/24 08:11:37;;;;;;;;;;;27.00;93.60;;;;;;5083073;28;24069;-57
2021/06/24 08:14:03;;;;;;;;;;;27.00;93.60;;;;;;5083623;28;19958;-56
2021/06/24 08:16:30;;;;;;;;;;;27.00;93.50;;;;;;5082875;28;25098;-57
2021/06/24 08:18:57;;;;;;;;;;;27.00;93.40;;;;;;5083253;28;19908;-59
2021/06/24 08:21:23;;;;;;;;;;;27.00;93.40;;;;;;5083168;28;19939;-57
2021/06/24 08:23:49;;;;;;;;;;;27.00;93.30;;;;;;5083015;28;19908;-59
2021/06/24 08:26:16;;;;;;;;;;;27.00;93.20;;;;;;5082980;28;24087;-58
2021/06/24 08:28:42;;;;;;;;;;;26.90;93.20;;;;;;5082602;28;19959;-57
2021/06/24 08:31:08;;;;;;;;;;;26.90;93.30;;;;;;5083058;28;19907;-57
2021/06/24 08:33:34;;;;;;;;;;;26.90;93.20;;;;;;5082848;28;24070;-58
2021/06/24 08:36:01;;;;;;;;;;;26.90;93.20;;;;;;5083895;28;24084;-58
2021/06/24 08:38:27;;;;;;;;;;;26.90;93.20;;;;;;5086663;28;19931;-58
2021/06/24 08:40:55;;;;;;;;;;;26.90;93.20;;;;;;5086411;28;19924;-57
2021/06/24 08:43:22;;;;;;;;;;;26.80;93.10;;;;;;5086175;28;19900;-54
2021/06/24 08:45:48;;;;;;;;;;;26.80;93.10;;;;;;5086695;28;19907;-57
2021/06/24 08:48:15;;;;;;;;;;;26.80;93.20;;;;;;5086470;28;19900;-59
2021/06/24 08:50:43;;;;;;;;;;;26.70;93.10;;;;;;5086493;28;19912;-57
2021/06/24 08:53:10;;;;;;;;;;;26.70;93.10;;;;;;5086621;28;24108;-55
2021/06/24 08:55:40;;;;;;;;;;;26.70;93.10;;;;;;5086206;28;19908;-59
2021/06/24 08:58:07;;;;;;;;;;;26.70;93.00;;;;;;5086369;28;19901;-56
2021/06/24 09:00:33;;;;;;;;;;;26.70;93.00;;;;;;5086888;28;19912;-55
2021/06/24 09:03:13;;;;;;;;;;;26.70;92.90;;;;;;5086102;28;24060;-56
2021/06/24 09:05:57;;;;;;;;;;;26.70;93.00;;;;;;5086256;28;19908;-56
2021/06/24 09:08:25;;;;;;;;;;;26.70;92.90;;;;;;5085667;28;24067;-59
2021/06/24 09:11:10;;;;;;;;;;;26.60;92.90;;;;;;5086126;28;24085;-56
2021/06/24 09:13:37;;;;;;;;;;;26.60;93.00;;;;;;5085748;28;20146;-56
2021/06/24 09:16:17;;;;;;;;;;;26.60;93.10;;;;;;5086133;28;19900;-55
2021/06/24 09:18:43;;;;;;;;;;;26.60;93.10;;;;;;5086192;28;19930;-56
2021/06/24 09:21:20;;;;;;;;;;;26.60;93.10;;;;;;5085946;28;19907;-59
2021/06/24 09:23:49;;;;;;;;;;;26.60;93.40;;;;;;5085768;28;19908;-57
2021/06/24 09:26:15;;;;;;;;;;;26.60;93.20;;;;;;5085811;28;19924;-55
2021/06/24 09:28:43;;;;;;;;;;;26.60;93.20;;;;;;5085560;28;19924;-55
2021/06/24 09:31:28;;;;;;;;;;;26.50;93.30;;;;;;5085993;28;20128;-53
2021/06/24 09:33:56;;;;;;;;;;;26.60;93.20;;;;;;5085659;28;24089;-56
2021/06/24 09:36:31;;;;;;;;;;;26.60;93.30;;;;;;5085716;28;19904;-53
2021/06/24 09:38:58;;;;;;;;;;;26.60;93.30;;;;;;5085453;28;19940;-57
2021/06/24 09:41:24;;;;;;;;;;;26.50;93.30;;;;;;5085224;28;24089;-54
2021/06/24 09:43:51;;;;;;;;;;;26.50;93.30;;;;;;5085552;28;24102;-53
2021/06/24 09:46:20;;;;;;;;;;;26.50;93.30;;;;;;5085013;28;20208;-56
2021/06/24 09:48:55;;;;;;;;;;;26.40;93.40;;;;;;5085502;28;19958;-58
2021/06/24 09:51:24;;;;;;;;;;;26.40;93.30;;;;;;5085377;28;19900;-55
2021/06/24 09:54:00;;;;;;;;;;;26.40;93.40;;;;;;5085324;28;24061;-54
2021/06/24 09:56:27;;;;;;;;;;;26.50;93.40;;;;;;5085345;28;20023;-57
2021/06/24 09:58:54;;;;;;;;;;;26.40;93.40;;;;;;5085201;28;20057;-54
2021/06/24 10:01:31;;;;;;;;;;;26.50;93.50;;;;;;5085078;28;19900;-56
2021/06/24 10:03:58;;;;;;;;;;;26.40;93.50;;;;;;5085560;28;19916;-57
2021/06/24 10:06:24;;;;;;;;;;;26.40;93.60;;;;;;5084767;28;24078;-56
2021/06/24 10:08:51;;;;;;;;;;;26.40;93.60;;;;;;5084727;28;19954;-53
2021/06/24 10:11:18;;;;;;;;;;;26.40;93.60;;;;;;5084933;28;24058;-53
2021/06/24 10:13:44;;;;;;;;;;;26.40;93.50;;;;;;5084781;28;20037;-54
2021/06/24 10:16:11;;;;;;;;;;;26.40;93.40;;;;;;5084797;28;20022;-57
2021/06/24 10:18:39;;;;;;;;;;;26.40;93.40;;;;;;5084774;28;20074;-54
2021/06/24 10:21:07;;;;;;;;;;;26.40;93.40;;;;;;5084576;28;20185;-54
2021/06/24 10:23:34;;;;;;;;;;;26.40;93.50;;;;;;5084670;28;19979;-56
2021/06/24 10:26:01;;;;;;;;;;;26.40;93.50;;;;;;5085014;28;20026;-56
2021/06/24 10:28:27;;;;;;;;;;;26.40;93.40;;;;;;5084254;28;24075;-55
2021/06/24 10:30:54;;;;;;;;;;;26.40;93.30;;;;;;5084585;28;19946;-59
2021/06/24 10:33:20;;;;;;;;;;;26.40;93.20;;;;;;5084384;28;19901;-57
2021/06/24 10:35:52;;;;;;;;;;;26.40;93.20;;;;;;5084440;28;20181;-58
2021/06/24 10:38:19;;;;;;;;;;;26.40;93.10;;;;;;5084397;28;20172;-56
2021/06/24 10:40:55;;;;;;;;;;;26.40;93.10;;;;;;5082953;28;19909;-57
2021/06/24 10:43:24;;;;;;;;;;;26.30;93.10;;;;;;5084251;28;20115;-57
2021/06/24 10:46:09;;;;;;;;;;;26.40;93.10;;;;;;5084210;28;24072;-57
2021/06/24 10:48:36;;;;;;;;;;;26.40;93.10;;;;;;5084213;28;19953;-56
2021/06/24 10:51:03;;;;;;;;;;;26.40;93.30;;;;;;5084250;28;19942;-55
2021/06/24 10:53:29;;;;;;;;;;;26.40;93.10;;;;;;5084156;28;19907;-54
2021/06/24 10:55:55;;;;;;;;;;;26.40;93.10;;;;;;5084099;28;19912;-58
2021/06/24 10:58:26;;;;;;;;;;;26.30;93.10;;;;;;5083656;28;19900;-55
2021/06/24 11:00:56;;;;;;;;;;;26.30;93.00;;;;;;5084387;28;19927;-57
2021/06/24 11:03:32;;;;;;;;;;;26.40;93.10;;;;;;5084438;28;19900;-55
2021/06/24 11:06:17;;;;;;;;;;;26.30;93.00;;;;;;5084368;28;24068;-61
2021/06/24 11:08:44;;;;;;;;;;;26.40;92.80;;;;;;5084514;28;19916;-57
2021/06/24 11:11:13;;;;;;;;;;;26.30;92.50;;;;;;5084360;28;20212;-58
2021/06/24 11:13:47;;;;;;;;;;;26.30;92.50;;;;;;5084433;28;19904;-54
2021/06/24 11:16:16;;;;;;;;;;;26.30;92.40;;;;;;5084483;28;19913;-60
2021/06/24 11:18:52;;;;;;;;;;;26.30;92.20;;;;;;5084172;28;19968;-56
2021/06/24 11:21:24;;;;;;;;;;;26.30;92.20;;;;;;5084326;28;20176;-59
2021/06/24 11:23:54;;;;;;;;;;;26.30;92.20;;;;;;5084457;28;19972;-59
2021/06/24 11:26:28;;;;;;;;;;;26.30;92.20;;;;;;5084246;28;19916;-58
2021/06/24 11:28:56;;;;;;;;;;;26.30;92.30;;;;;;5084359;28;19928;-58
2021/06/24 11:31:46;;;;;;;;;;;26.30;92.30;;;;;;5084250;28;20136;-59
2021/06/24 11:37:04;;;;;;;;;;;26.30;92.30;;;;;;5074094;28;19904;-60
2021/06/24 11:39:35;;;;;;;;;;;26.30;92.30;;;;;;5084297;28;20220;-59
2021/06/24 11:42:07;;;;;;;;;;;26.40;92.30;;;;;;5083954;28;19907;-58
2021/06/24 11:44:35;;;;;;;;;;;26.40;92.10;;;;;;5084912;28;19954;-57
2021/06/24 11:47:10;;;;;;;;;;;26.50;92.10;;;;;;5084080;28;19904;-56
2021/06/24 12:03:26;;;;;;;;;;;26.60;91.90;;;;;;5084186;28;20235;-57
2021/06/24 12:05:54;;;;;;;;;;;26.60;92.00;;;;;;5084273;28;19900;-57
2021/06/24 12:08:24;;;;;;;;;;;26.60;92.00;;;;;;5083866;28;19928;-60
2021/06/24 12:11:06;;;;;;;;;;;26.60;92.10;;;;;;5086797;28;19947;-56
2021/06/24 12:13:34;;;;;;;;;;;26.60;92.00;;;;;;5087848;28;19939;-59
2021/06/24 12:16:01;;;;;;;;;;;26.60;91.90;;;;;;5087845;28;20189;-57
2021/06/24 12:18:33;;;;;;;;;;;26.60;91.90;;;;;;5087804;28;19901;-59
2021/06/24 12:21:15;;;;;;;;;;;26.60;91.80;;;;;;5087524;28;19907;-57
2021/06/24 12:23:45;;;;;;;;;;;26.60;91.90;;;;;;5103569;28;19916;-57
2021/06/24 12:26:13;;;;;;;;;;;26.60;92.10;;;;;;5087593;28;19907;-58
2021/06/24 12:28:40;;;;;;;;;;;26.70;92.10;;;;;;5087361;28;19920;-55
2021/06/24 12:31:16;;;;;;;;;;;26.70;92.10;;;;;;5087639;28;19900;-58
2021/06/24 12:33:42;;;;;;;;;;;26.80;92.10;;;;;;5087286;28;19987;-58
2021/06/24 12:36:09;;;;;;;;;;;26.80;92.10;;;;;;5087342;28;19939;-58
2021/06/24 12:38:36;;;;;;;;;;;26.80;92.30;;;;;;5087396;28;19904;-56
2021/06/24 12:41:09;;;;;;;;;;;26.90;91.90;;;;;;5087225;28;20268;-61
2021/06/24 12:43:37;;;;;;;;;;;26.90;91.80;;;;;;5087151;28;19904;-58
2021/06/24 12:46:06;;;;;;;;;;;26.90;91.80;;;;;;5087238;28;19904;-62
2021/06/24 12:48:33;;;;;;;;;;;27.00;91.80;;;;;;5085861;28;19913;-60
2021/06/24 12:51:22;;;;;;;;;;;27.00;91.70;;;;;;5087371;28;19905;-58
2021/06/24 12:53:50;;;;;;;;;;;27.10;91.70;;;;;;5081606;28;19944;-59
2021/06/24 12:56:19;;;;;;;;;;;27.20;91.60;;;;;;5086569;28;19931;-57
2021/06/24 12:58:46;;;;;;;;;;;27.30;91.50;;;;;;5086570;28;20212;-57
2021/06/24 13:01:14;;;;;;;;;;;27.30;91.50;;;;;;5086874;28;19904;-58
2021/06/24 13:03:46;;;;;;;;;;;27.30;91.30;;;;;;5086480;28;19911;-56
2021/06/24 13:06:18;;;;;;;;;;;27.40;91.50;;;;;;5086713;28;19967;-55
2021/06/24 13:08:50;;;;;;;;;;;27.40;91.30;;;;;;5086993;28;19911;-61
2021/06/24 13:11:19;;;;;;;;;;;27.40;91.30;;;;;;5086310;28;19905;-59
2021/06/24 13:13:53;;;;;;;;;;;27.40;91.30;;;;;;5086574;28;20120;-58
2021/06/24 13:16:23;;;;;;;;;;;27.40;91.20;;;;;;5086105;28;19905;-58
2021/06/24 13:18:50;;;;;;;;;;;27.40;91.10;;;;;;5086610;28;19904;-56
2021/06/24 13:21:17;;;;;;;;;;;27.40;90.90;;;;;;5085903;28;19904;-58
2021/06/24 13:23:43;;;;;;;;;;;27.50;91.00;;;;;;5086340;28;20040;-56
2021/06/24 13:26:14;;;;;;;;;;;27.50;91.00;;;;;;5086272;28;20097;-56
2021/06/24 13:28:41;;;;;;;;;;;27.60;91.00;;;;;;5086069;28;19916;-57
2021/06/24 13:31:07;;;;;;;;;;;27.60;90.90;;;;;;5086266;28;19973;-56
2021/06/24 13:33:37;;;;;;;;;;;27.60;90.90;;;;;;5085217;28;19909;-54
2021/06/24 13:36:24;;;;;;;;;;;27.60;90.90;;;;;;5086321;28;20128;-56
2021/06/24 13:38:54;;;;;;;;;;;27.60;90.90;;;;;;5086136;28;19975;-57
2021/06/24 13:41:24;;;;;;;;;;;27.60;90.60;;;;;;5085917;28;20181;-57
2021/06/24 13:44:04;;;;;;;;;;;27.60;90.60;;;;;;5085631;28;19908;-56
2021/06/24 13:46:31;;;;;;;;;;;27.60;90.70;;;;;;5085363;28;20185;-57
2021/06/24 13:48:57;;;;;;;;;;;27.60;90.70;;;;;;5085477;28;19919;-55
2021/06/24 13:51:23;;;;;;;;;;;27.60;90.70;;;;;;5101514;28;20192;-55
2021/06/24 13:53:57;;;;;;;;;;;27.70;90.40;;;;;;5086065;28;19916;-56
2021/06/24 13:56:23;;;;;;;;;;;27.60;90.60;;;;;;5085904;28;19976;-56
2021/06/24 13:58:49;;;;;;;;;;;27.60;90.70;;;;;;5085870;28;20171;-56
2021/06/24 14:01:15;;;;;;;;;;;27.70;90.60;;;;;;5085829;28;19923;-58
2021/06/24 14:03:43;;;;;;;;;;;27.60;90.60;;;;;;5085962;28;19908;-56
2021/06/24 14:06:10;;;;;;;;;;;27.60;90.60;;;;;;5085718;28;20228;-56
2021/06/24 14:08:36;;;;;;;;;;;27.60;90.50;;;;;;5085609;28;20019;-57
2021/06/24 14:11:02;;;;;;;;;;;27.60;90.60;;;;;;5085413;28;19907;-57
2021/06/24 14:13:28;;;;;;;;;;;27.60;90.60;;;;;;5085087;28;19900;-59
2021/06/24 14:15:54;;;;;;;;;;;27.60;90.50;;;;;;5085160;28;20153;-59